Time Latitude Longitude Accuracy (66% radius in meters) Altitude (meters) Speed (km/hour) Bearing (degrees) Battery (%) GPS flag
09:05:29 55.944036 38.068152 12 181.11917889275 0.30681988596916 120.86502075195 77 1 delete
09:05:21 55.944041 38.068163 8 182.03459748723 0.021382993087173 47.111663818359 77 1 delete
09:05:09 55.944041 38.068171 12 181.4172818784 0.23304282128811 15.994086265564 77 1 delete
09:04:57 55.944042 38.068145 8 181.44168098941 0.26296374201775 254.0968170166 77 1 delete
09:04:44 55.944031 38.068170 6 182.35645609451 0.99835610389709 249.78283691406 77 1 delete
09:04:32 55.944037 38.068221 8 183.40021788112 0.82340127229691 115.9988861084 77 1 delete
09:04:20 55.944036 38.068130 12 184.37598214746 0.25129279494286 149.11935424805 77 1 delete
09:04:12 55.944002 38.068062 8 185.25303283019 1.0893526077271 68.435859680176 77 1 delete
09:04:08 55.943989 38.067968 8 185.9825075616 0.62423795461655 85.721694946289 77 1 delete
09:04:03 55.943984 38.067951 12 187.23704573862 0.4262555539608 60.110244750977 77 1 delete
09:03:56 55.943955 38.067883 8 188.05675277429 1.4092146158218 68.582763671875 77 1 delete
09:03:53 55.943921 38.067771 8 188.630784356 1.1758353710175 64.759872436523 77 1 delete
09:03:51 55.943908 38.067652 8 189.1544067082 0.95648634433746 50.842063903809 77 1 delete
09:03:48 55.943887 38.067581 6 189.76084567938 0.8243288397789 84.809204101562 77 1 delete
09:03:44 55.943871 38.067543 8 190.26318954881 1.180864572525 99.718460083008 77 1 delete
09:03:41 55.943857 38.067514 8 190.75275009592 3.0107822418213 40.454467773438 77 1 delete
09:03:39 55.943768 38.067398 12 191.15900588154 3.1373994350433 49.990306854248 77 1 delete
09:03:36 55.943660 38.067286 8 191.59163097616 2.9480040073395 353.67782592773 77 1 delete
09:03:32 55.943580 38.067256 8 191.69425399328 2.9848756790161 27.372776031494 77 1 delete
09:03:29 55.943487 38.067068 8 191.96431579146 2.7919716835022 44.20365524292 77 1 delete
09:03:24 55.943402 38.066931 8 192.52046826175 3.3018417358398 47.402515411377 77 1 delete
09:03:20 55.943307 38.066889 6 193.02714979313 3.5223925113678 18.074375152588 77 1 delete
09:03:17 55.943179 38.066919 6 194.63541739816 3.3575918674469 334.62710571289 77 1 delete
09:03:15 55.943030 38.067001 6 197.13347299969 3.199334859848 349.1057434082 77 1 delete
09:03:12 55.942880 38.067054 8 197.52700452851 3.1454863548279 336.4426574707 77 1 delete
09:03:08 55.942761 38.067142 8 197.96876888199 3.1048943996429 333.36456298828 77 1 delete
09:03:05 55.942652 38.067230 6 198.68890136328 2.9598836898804 341.49887084961 77 1 delete
09:03:03 55.942536 38.067242 6 199.3064730769 2.8157041072845 357.73211669922 77 1 delete
09:03:00 55.942485 38.067197 12 200.06130239752 2.7142112255096 8.090856552124 77 1 delete
09:02:56 55.942455 38.067101 8 200.8312058007 2.8135786056519 17.503095626831 77 1 delete
09:02:53 55.942460 38.066966 8 201.38190287185 2.9216995239258 122.40567779541 77 1 delete
09:02:51 55.942474 38.066783 12 201.85237050938 2.8136661052704 133.65582275391 77 1 delete
09:02:48 55.942428 38.066700 6 202.82920552979 2.6326286792755 54.867214202881 77 1 delete
09:02:44 55.942339 38.066573 8 203.77977630987 2.5178329944611 42.812870025635 77 1 delete
09:02:41 55.942224 38.066456 8 205.07019047243 2.7518272399902 19.511701583862 77 1 delete
09:02:39 55.942157 38.066433 6 206.27166955941 3.2622447013855 11.773316383362 77 1 delete
09:02:36 55.942067 38.066433 12 207.46332672124 3.4810345172882 0.51194775104523 77 1 delete
09:02:32 55.941950 38.066354 8 208.34820188904 3.6318969726562 11.084866523743 77 1 delete
09:02:29 55.941874 38.066242 8 209.02775575086 3.7695784568787 35.707454681396 77 1 delete
09:02:27 55.941798 38.066043 8 211.281196728 3.9510903358459 18.631467819214 77 1 delete
09:02:24 55.941784 38.065936 12 211.46612836579 4.2732095718384 77.26301574707 77 1 delete
09:02:20 55.941799 38.065713 8 210.92805221518 4.3321447372437 99.729621887207 77 1 delete
09:02:17 55.941861 38.065442 8 211.48317205095 4.3261513710022 123.57210540771 77 1 delete
09:02:15 55.941937 38.065145 8 208.40626669406 4.2198276519775 130.34825134277 77 1 delete
09:02:12 55.941991 38.064949 12 204.77665999883 4.0571117401123 144.0652923584 77 1 delete
09:02:08 55.942082 38.064724 12 197.28024144285 3.7192056179047 120.2156829834 77 1 delete
09:02:05 55.942145 38.064463 8 196.48929101399 3.7044148445129 124.16864776611 77 1 delete
09:02:03 55.942192 38.064251 8 195.92890173419 3.778731584549 93.699859619141 77 1 delete
09:02:00 55.942217 38.064036 6 195.06314996132 3.7733759880066 101.45664978027 77 1 delete
09:01:56 55.942253 38.063801 6 194.73445801886 3.8380389213562 120.15634918213 77 1 delete